Haruka — JD3824 — position and weather

sailwx.info

Track history (hours):
 
Tides and Currents Weather Stations Pressure Air Temp Water Temp Dewpoint Dewpoint Depression Visibility Wind Speed Wind Dir Waves Ship Positions

Haruka

Last reported at 2017-Nov-09 02:15 UTC. Time now 2017-Nov-22 09:26 UTC.
Position N 35°11' E 139°45'.
Warning: this ship's position is 13 days out of date.

Length 76 m; draft 3.7 m.

Type: Cargo ship. MMSI: 431006123.

Date/timePositionNaut miles runAvg speedWind from/ knotsBaromVisibWave heightAir tempDewpointWater temp
2017-Nov-09 02:15N 35°11' E 139°45'412.8
2017-Nov-09 01:59N 35°15' E 139°46'612.9
2017-Nov-09 01:30N 35°20' E 139°42'713.0
2017-Nov-09 01:01N 35°26' E 139°42'1 1.6
2017-Nov-09 00:30N 35°26' E 139°41'0 0.0
2017-Nov-09 00:00N 35°26' E 139°41'0 0.0
2017-Nov-08 23:30N 35°26' E 139°41'1 2.1
2017-Nov-08 23:00N 35°27' E 139°42'0 0.0
2017-Nov-08 22:30N 35°27' E 139°42'0 0.0
2017-Nov-08 22:00N 35°27' E 139°42'0 0.0
2017-Nov-08 21:30N 35°27' E 139°42'0 0.0
2017-Nov-08 21:00N 35°27' E 139°42'0 0.0
2017-Nov-08 20:30N 35°27' E 139°42'0 0.1
2017-Nov-08 20:00N 35°27' E 139°42'0 0.0
2017-Nov-08 19:30N 35°27' E 139°42'0 0.0
2017-Nov-08 19:00N 35°27' E 139°42'0 0.0
2017-Nov-08 18:30N 35°27' E 139°42'0 0.0
2017-Nov-08 18:00N 35°27' E 139°42'0 0.0
2017-Nov-08 17:30N 35°27' E 139°42'0 0.6
2017-Nov-08 17:00N 35°26' E 139°42'510.6
2017-Nov-08 16:30N 35°21' E 139°43'612.0
2017-Nov-08 16:00N 35°16' E 139°46'  
2017-Nov-04 11:42N 34°50' E 139°33'310.3
2017-Nov-04 11:24N 34°50' E 139°36'  
2017-Oct-31 18:25N 34°51' E 139°53'613.2
2017-Oct-31 17:58N 34°50' E 139°46'712.7
2017-Oct-31 17:27N 34°50' E 139°38'13 0.5
2017-Oct-30 13:22N 34°58' E 139°25'410.3
2017-Oct-30 13:00N 35°00' E 139°29'510.7
2017-Oct-30 12:30N 35°03' E 139°35'713.0
2017-Oct-30 11:59N 35°07' E 139°42'613.3
2017-Oct-30 11:30N 35°12' E 139°46'611.9
2017-Oct-30 11:00N 35°18' E 139°44'611.3
2017-Oct-30 10:31N 35°23' E 139°42'612.0
2017-Oct-30 09:59N 35°28' E 139°48'  
Track history (hours):
 
Tides and Currents Weather Stations Pressure Air Temp Water Temp Dewpoint Dewpoint Depression Visibility Wind Speed Wind Dir Waves Ship Positions

Haruka

Last reported at 2017-Nov-09 02:15 UTC. Time now 2017-Nov-22 09:26 UTC.
Position N 35°11' E 139°45'.
Warning: this ship's position is 13 days out of date.

Length 76 m; draft 3.7 m.

Type: Cargo ship. MMSI: 431006123.

Date/timePositionNaut miles runAvg speedWind from/ knotsBaromVisibWave heightAir tempDewpointWater temp
2017-Nov-09 02:15N 35°11' E 139°45'412.8
2017-Nov-09 01:59N 35°15' E 139°46'612.9
2017-Nov-09 01:30N 35°20' E 139°42'713.0
2017-Nov-09 01:01N 35°26' E 139°42'1 1.6
2017-Nov-09 00:30N 35°26' E 139°41'0 0.0
2017-Nov-09 00:00N 35°26' E 139°41'0 0.0
2017-Nov-08 23:30N 35°26' E 139°41'1 2.1
2017-Nov-08 23:00N 35°27' E 139°42'0 0.0
2017-Nov-08 22:30N 35°27' E 139°42'0 0.0
2017-Nov-08 22:00N 35°27' E 139°42'0 0.0
2017-Nov-08 21:30N 35°27' E 139°42'0 0.0
2017-Nov-08 21:00N 35°27' E 139°42'0 0.0
2017-Nov-08 20:30N 35°27' E 139°42'0 0.1
2017-Nov-08 20:00N 35°27' E 139°42'0 0.0
2017-Nov-08 19:30N 35°27' E 139°42'0 0.0
2017-Nov-08 19:00N 35°27' E 139°42'0 0.0
2017-Nov-08 18:30N 35°27' E 139°42'0 0.0
2017-Nov-08 18:00N 35°27' E 139°42'0 0.0
2017-Nov-08 17:30N 35°27' E 139°42'0 0.6
2017-Nov-08 17:00N 35°26' E 139°42'510.6
2017-Nov-08 16:30N 35°21' E 139°43'612.0
2017-Nov-08 16:00N 35°16' E 139°46'  
2017-Nov-04 11:42N 34°50' E 139°33'310.3
2017-Nov-04 11:24N 34°50' E 139°36'  
2017-Oct-31 18:25N 34°51' E 139°53'613.2
2017-Oct-31 17:58N 34°50' E 139°46'712.7
2017-Oct-31 17:27N 34°50' E 139°38'13 0.5
2017-Oct-30 13:22N 34°58' E 139°25'410.3
2017-Oct-30 13:00N 35°00' E 139°29'510.7
2017-Oct-30 12:30N 35°03' E 139°35'713.0
2017-Oct-30 11:59N 35°07' E 139°42'613.3
2017-Oct-30 11:30N 35°12' E 139°46'611.9
2017-Oct-30 11:00N 35°18' E 139°44'611.3
2017-Oct-30 10:31N 35°23' E 139°42'612.0
2017-Oct-30 09:59N 35°28' E 139°48'  

Dump ship's entire track history